createdAt,value
2022-09-26T00:01:34.178Z,61.33
2022-09-26T00:04:06.485Z,58.50
2022-09-26T00:06:33.420Z,60.83
2022-09-26T00:09:00.434Z,64.23
2022-09-26T00:11:30.493Z,58.93
2022-09-26T00:14:00.735Z,59.63
2022-09-26T00:16:28.298Z,55.13
2022-09-26T00:18:56.946Z,59.97
2022-09-26T00:21:25.195Z,59.53
2022-09-26T00:23:53.615Z,56.83
2022-09-26T00:26:22.492Z,64.37
2022-09-26T00:28:49.443Z,57.87
2022-09-26T00:31:32.946Z,58.30
2022-09-26T00:34:00.046Z,57.67
2022-09-26T00:36:37.423Z,59.77
2022-09-26T00:39:07.958Z,63.03
2022-09-26T00:41:36.068Z,53.07
2022-09-26T00:44:23.582Z,60.07
2022-09-26T00:46:51.421Z,59.20
2022-09-26T00:49:26.724Z,53.73
2022-09-26T00:52:08.600Z,50.80
2022-09-26T00:54:38.756Z,49.47
2022-09-26T00:57:14.314Z,45.90
2022-09-26T00:59:49.679Z,48.73
2022-09-26T01:02:18.049Z,52.33
2022-09-26T01:04:48.426Z,49.23
2022-09-26T01:07:19.968Z,50.37
2022-09-26T01:09:48.097Z,50.90
2022-09-26T01:12:16.878Z,48.90
2022-09-26T01:14:46.885Z,48.70
2022-09-26T01:17:14.924Z,49.43
2022-09-26T01:20:09.326Z,52.93
2022-09-26T01:22:57.963Z,49.70
2022-09-26T01:25:52.202Z,50.23
2022-09-26T01:28:34.413Z,45.13
2022-09-26T01:31:14.643Z,48.90
2022-09-26T01:33:51.361Z,51.57
2022-09-26T01:36:38.516Z,48.77
2022-09-26T01:39:26.737Z,52.23
2022-09-26T01:41:53.940Z,47.27
2022-09-26T01:44:46.424Z,56.60
2022-09-26T01:47:44.111Z,57.70
2022-09-26T01:50:50.459Z,48.53
2022-09-26T01:53:31.376Z,48.60
2022-09-26T01:56:12.157Z,51.57
2022-09-26T01:58:47.343Z,46.67
2022-09-26T02:01:16.899Z,49.00
2022-09-26T02:03:49.787Z,48.50
2022-09-26T02:06:23.121Z,60.70
2022-09-26T02:08:58.459Z,48.73
2022-09-26T02:11:26.462Z,50.27
2022-09-26T02:14:07.204Z,47.70
2022-09-26T02:16:46.796Z,52.87
2022-09-26T02:19:32.838Z,51.33
2022-09-26T02:22:01.403Z,52.43
2022-09-26T02:24:29.149Z,50.43
2022-09-26T02:26:56.840Z,53.70
2022-09-26T02:29:25.397Z,48.63
2022-09-26T02:32:00.344Z,49.43
2022-09-26T02:34:27.642Z,48.33
2022-09-26T02:36:57.458Z,44.93
2022-09-26T02:39:28.106Z,45.67
2022-09-26T02:42:38.070Z,49.30
2022-09-26T02:45:25.907Z,51.90
2022-09-26T02:48:05.671Z,48.00
2022-09-26T02:51:14.241Z,46.40
2022-09-26T02:54:06.391Z,50.33
2022-09-26T02:57:07.126Z,51.13
2022-09-26T03:00:03.876Z,48.73
2022-09-26T03:02:40.681Z,45.03
2022-09-26T03:05:22.027Z,47.80
2022-09-26T03:08:04.869Z,48.97
2022-09-26T03:10:33.105Z,48.37
2022-09-26T03:13:13.274Z,49.00
2022-09-26T03:15:45.320Z,50.37
2022-09-26T03:18:19.264Z,53.53
2022-09-26T03:20:46.877Z,45.30
2022-09-26T03:23:13.854Z,49.30
2022-09-26T03:25:44.546Z,47.20
2022-09-26T03:28:14.242Z,48.20
2022-09-26T03:30:41.382Z,44.03
2022-09-26T03:33:28.491Z,45.37
2022-09-26T03:35:56.187Z,43.13
2022-09-26T03:38:23.120Z,40.93
2022-09-26T03:41:00.379Z,45.70
2022-09-26T03:43:46.207Z,39.53
2022-09-26T03:46:15.955Z,44.63
2022-09-26T03:48:43.417Z,43.67
2022-09-26T03:51:13.187Z,41.20
2022-09-26T03:53:42.640Z,41.10
2022-09-26T03:56:15.705Z,41.37
2022-09-26T03:58:43.604Z,42.50
2022-09-26T04:01:13.619Z,39.80
2022-09-26T04:03:47.810Z,41.67
2022-09-26T04:06:20.832Z,41.30
2022-09-26T04:08:51.284Z,39.93
2022-09-26T04:11:21.498Z,44.97
2022-09-26T04:13:52.564Z,42.77
2022-09-26T04:16:23.783Z,45.43
2022-09-26T04:18:58.683Z,39.97
2022-09-26T04:21:27.613Z,38.47
2022-09-26T04:23:55.520Z,35.97
2022-09-26T04:26:24.318Z,36.80
2022-09-26T04:28:55.702Z,37.03
2022-09-26T04:31:28.032Z,38.63
2022-09-26T04:34:05.073Z,31.93
2022-09-26T04:36:32.689Z,35.53
2022-09-26T04:39:00.768Z,33.87
2022-09-26T04:41:29.921Z,30.13
2022-09-26T04:43:58.888Z,31.13
2022-09-26T04:46:30.731Z,29.73
2022-09-26T04:49:00.608Z,30.70
2022-09-26T04:51:29.602Z,32.57
2022-09-26T04:53:56.680Z,31.87
2022-09-26T04:56:29.296Z,30.70
2022-09-26T04:58:58.116Z,38.27
2022-09-26T05:01:28.418Z,29.57
2022-09-26T05:04:07.294Z,30.20
2022-09-26T05:06:34.612Z,29.73
2022-09-26T05:09:04.336Z,28.63
2022-09-26T05:11:46.491Z,32.43
2022-09-26T05:14:14.439Z,30.87
2022-09-26T05:16:41.723Z,31.10
2022-09-26T05:19:12.881Z,29.60
2022-09-26T05:21:51.189Z,30.63
2022-09-26T05:24:36.585Z,29.50
2022-09-26T05:27:06.962Z,28.53
2022-09-26T05:29:34.979Z,31.93
2022-09-26T05:32:04.958Z,29.83
2022-09-26T05:34:36.935Z,32.23
2022-09-26T05:37:05.426Z,28.63
2022-09-26T05:39:51.666Z,33.20
2022-09-26T05:42:19.844Z,28.80
2022-09-26T05:44:47.254Z,27.03
2022-09-26T05:47:14.492Z,34.93
2022-09-26T05:49:41.562Z,27.50
2022-09-26T05:52:12.243Z,30.27
2022-09-26T05:54:39.205Z,28.07
2022-09-26T05:57:26.096Z,24.23
2022-09-26T05:59:55.172Z,29.37
2022-09-26T06:02:25.133Z,27.07
2022-09-26T06:05:18.219Z,27.87
2022-09-26T06:08:09.976Z,27.50
2022-09-26T06:10:45.696Z,28.77
2022-09-26T06:13:15.402Z,28.53
2022-09-26T06:15:50.042Z,28.37
2022-09-26T06:18:17.354Z,32.17
2022-09-26T06:20:44.360Z,28.20
2022-09-26T06:23:12.871Z,29.90
2022-09-26T06:25:41.013Z,26.97
2022-09-26T06:28:07.921Z,27.53
2022-09-26T06:30:37.913Z,24.93
2022-09-26T06:33:13.934Z,23.23
2022-09-26T06:36:10.591Z,26.33
2022-09-26T06:38:38.741Z,25.83
2022-09-26T06:41:13.979Z,26.77
2022-09-26T06:43:40.991Z,24.57
2022-09-26T06:46:37.340Z,23.80
2022-09-26T06:49:13.108Z,24.10
2022-09-26T06:51:49.144Z,24.57
2022-09-26T06:54:17.524Z,26.00
2022-09-26T06:56:44.748Z,25.93
2022-09-26T06:59:12.252Z,26.00
2022-09-26T07:01:48.662Z,27.83
2022-09-26T07:04:36.018Z,28.23
2022-09-26T07:07:17.710Z,27.67
2022-09-26T07:09:44.841Z,30.73
2022-09-26T07:12:37.674Z,30.87
2022-09-26T07:15:05.047Z,30.00
2022-09-26T07:17:33.026Z,30.53
2022-09-26T07:20:18.789Z,31.87
2022-09-26T07:22:55.144Z,28.43
2022-09-26T07:25:22.255Z,27.83
2022-09-26T07:27:52.060Z,29.37
2022-09-26T07:30:24.612Z,29.20
2022-09-26T07:33:04.649Z,26.57
2022-09-26T07:35:44.455Z,25.37
2022-09-26T07:38:13.144Z,23.30
2022-09-26T07:40:42.893Z,26.03
2022-09-26T07:43:19.676Z,22.73
2022-09-26T07:46:10.263Z,22.80
2022-09-26T07:48:57.529Z,23.87
2022-09-26T07:51:43.192Z,22.03
2022-09-26T07:54:15.415Z,26.37
2022-09-26T07:56:55.244Z,24.23
2022-09-26T07:59:40.719Z,27.93
2022-09-26T08:02:25.758Z,23.60
2022-09-26T08:04:58.782Z,23.13
2022-09-26T08:07:27.904Z,25.23
2022-09-26T08:10:06.169Z,23.13
2022-09-26T08:12:51.656Z,22.57
2022-09-26T08:15:36.284Z,24.37
2022-09-26T08:18:08.959Z,25.37
2022-09-26T08:20:37.184Z,21.97
2022-09-26T08:23:04.220Z,21.80
2022-09-26T08:25:31.161Z,21.87
2022-09-26T08:28:05.972Z,20.10
2022-09-26T08:30:33.362Z,19.97
2022-09-26T08:33:04.613Z,19.37
2022-09-26T08:35:38.540Z,20.07
2022-09-26T08:38:23.979Z,20.17
2022-09-26T08:42:02.061Z,20.77
2022-09-26T08:45:42.058Z,17.80
2022-09-26T08:48:45.710Z,16.97
2022-09-26T08:51:31.544Z,20.03
2022-09-26T08:54:11.814Z,19.13
2022-09-26T08:56:47.143Z,14.43
2022-09-26T08:59:40.617Z,16.73
2022-09-26T09:02:23.023Z,15.80
2022-09-26T09:05:23.485Z,17.70
2022-09-26T09:07:55.614Z,17.27
2022-09-26T09:10:55.494Z,18.50
2022-09-26T09:13:43.738Z,15.47
2022-09-26T09:16:40.341Z,16.07
2022-09-26T09:19:48.855Z,17.10
2022-09-26T09:23:09.623Z,15.97
2022-09-26T09:25:55.305Z,14.57
2022-09-26T09:28:34.706Z,15.00
2022-09-26T09:31:06.508Z,14.27
2022-09-26T09:33:45.486Z,16.60
2022-09-26T09:36:41.729Z,17.60
2022-09-26T09:39:40.371Z,14.00
2022-09-26T09:42:40.607Z,15.30
2022-09-26T09:45:12.413Z,17.33
2022-09-26T09:47:40.132Z,18.07
2022-09-26T09:50:30.662Z,18.63
2022-09-26T09:53:16.488Z,16.90
2022-09-26T09:55:55.589Z,15.63
2022-09-26T09:59:03.650Z,17.13
2022-09-26T10:01:42.313Z,15.20
2022-09-26T10:04:59.198Z,16.20
2022-09-26T10:07:27.233Z,18.00
2022-09-26T10:10:28.189Z,16.20
2022-09-26T10:13:35.844Z,13.97
2022-09-26T10:16:21.694Z,15.60
2022-09-26T10:19:07.996Z,15.60
2022-09-26T10:21:41.751Z,16.63
2022-09-26T10:24:24.139Z,16.63
2022-09-26T10:26:56.883Z,16.73
2022-09-26T10:29:35.900Z,15.37
2022-09-26T10:32:03.538Z,16.97
2022-09-26T10:34:34.424Z,16.67
2022-09-26T10:37:24.543Z,15.67
2022-09-26T10:40:20.509Z,15.17
2022-09-26T10:42:47.987Z,15.17
2022-09-26T10:45:20.366Z,14.13
2022-09-26T10:48:07.011Z,14.53
2022-09-26T10:51:00.554Z,15.20
2022-09-26T10:53:56.956Z,15.07
2022-09-26T10:56:28.648Z,13.93
2022-09-26T10:58:59.495Z,11.67
2022-09-26T11:01:31.308Z,11.73
2022-09-26T11:04:12.142Z,11.73
2022-09-26T11:07:27.909Z,12.13
2022-09-26T11:10:14.807Z,8.00
2022-09-26T11:12:58.144Z,10.60
2022-09-26T11:15:26.486Z,10.67
2022-09-26T11:17:55.589Z,10.83
2022-09-26T11:20:25.603Z,9.63
2022-09-26T11:23:07.861Z,10.23
2022-09-26T11:25:58.307Z,10.10
2022-09-26T11:28:34.406Z,9.83
2022-09-26T11:31:30.577Z,11.20
2022-09-26T11:34:26.327Z,10.30
2022-09-26T11:37:42.234Z,9.10
2022-09-26T11:40:37.284Z,9.30
2022-09-26T11:43:35.379Z,8.50
2022-09-26T11:46:35.408Z,7.00
2022-09-26T11:49:32.029Z,8.37
2022-09-26T11:52:48.268Z,6.50
2022-09-26T11:55:37.616Z,8.27
2022-09-26T11:58:15.762Z,6.43
2022-09-26T12:01:08.150Z,7.17
2022-09-26T12:03:36.161Z,5.10
2022-09-26T12:06:20.999Z,5.53
2022-09-26T12:09:14.284Z,9.23
2022-09-26T12:11:45.725Z,6.63
2022-09-26T12:14:52.533Z,6.63
2022-09-26T12:17:35.135Z,5.97
2022-09-26T12:20:26.707Z,5.40
2022-09-26T12:23:31.381Z,6.20
2022-09-26T12:26:36.709Z,7.27
2022-09-26T12:29:40.688Z,6.13
2022-09-26T12:32:07.660Z,5.37
2022-09-26T12:35:07.256Z,5.97
2022-09-26T12:38:00.171Z,7.00
2022-09-26T12:40:37.162Z,6.63
2022-09-26T12:43:13.982Z,5.33
2022-09-26T12:45:42.291Z,5.87
2022-09-26T12:48:35.001Z,5.90
2022-09-26T12:51:40.252Z,6.50
2022-09-26T12:54:41.640Z,5.40
2022-09-26T12:57:43.137Z,7.13
2022-09-26T13:00:21.568Z,5.63
2022-09-26T13:03:18.910Z,5.23
2022-09-26T13:06:25.475Z,4.70
2022-09-26T13:09:20.451Z,5.80
2022-09-26T13:12:17.631Z,5.23
2022-09-26T13:15:18.709Z,5.40
2022-09-26T13:17:52.272Z,8.23
2022-09-26T13:20:41.227Z,5.83
2022-09-26T13:23:17.040Z,8.20
2022-09-26T13:25:55.640Z,5.60
2022-09-26T13:28:37.879Z,6.37
2022-09-26T13:31:20.284Z,5.73
2022-09-26T13:34:04.105Z,5.80
2022-09-26T13:36:33.954Z,6.67
2022-09-26T13:39:17.678Z,6.23
2022-09-26T13:42:15.175Z,7.07
2022-09-26T13:44:58.877Z,8.63
2022-09-26T13:47:50.705Z,6.00
2022-09-26T13:50:56.021Z,6.90
2022-09-26T13:53:40.642Z,6.30
2022-09-26T13:56:30.452Z,5.07
2022-09-26T13:59:04.757Z,3.63
2022-09-26T14:01:33.659Z,4.00
2022-09-26T14:04:20.641Z,5.80
2022-09-26T14:07:28.225Z,4.97
2022-09-26T14:10:01.794Z,6.03
2022-09-26T14:12:51.831Z,5.63
2022-09-26T14:15:20.957Z,6.17
2022-09-26T14:17:47.910Z,6.97
2022-09-26T14:20:52.968Z,6.70
2022-09-26T14:23:40.709Z,5.03
2022-09-26T14:26:08.945Z,3.33
2022-09-26T14:28:37.357Z,4.10
2022-09-26T14:31:19.735Z,2.70
2022-09-26T14:33:47.335Z,5.63
2022-09-26T14:36:35.346Z,4.43
2022-09-26T14:39:04.182Z,4.50
2022-09-26T14:41:34.713Z,3.00
2022-09-26T14:44:16.041Z,6.93
2022-09-26T14:46:43.725Z,4.00
2022-09-26T14:49:23.702Z,3.90
2022-09-26T14:51:56.652Z,4.93
2022-09-26T14:54:27.853Z,4.23
2022-09-26T14:57:24.024Z,6.07
2022-09-26T14:59:51.151Z,7.73
2022-09-26T15:02:38.821Z,5.57
2022-09-26T15:05:19.465Z,8.87
2022-09-26T15:07:52.314Z,7.93
2022-09-26T15:10:41.875Z,10.23
2022-09-26T15:13:08.997Z,7.37
2022-09-26T15:16:01.888Z,7.87
2022-09-26T15:18:45.285Z,6.77
2022-09-26T15:21:35.742Z,4.80
2022-09-26T15:24:26.471Z,6.17
2022-09-26T15:26:56.258Z,5.27
2022-09-26T15:29:23.490Z,5.80
2022-09-26T15:31:52.077Z,9.07
2022-09-26T15:34:23.733Z,4.47
2022-09-26T15:36:57.798Z,5.57
2022-09-26T15:39:30.938Z,6.33
2022-09-26T15:42:29.565Z,3.37
2022-09-26T15:45:01.757Z,3.30
2022-09-26T15:47:34.741Z,3.33
2022-09-26T15:50:14.368Z,3.97
2022-09-26T15:52:48.773Z,3.30
2022-09-26T15:55:23.763Z,4.60
2022-09-26T15:57:54.466Z,3.43
2022-09-26T16:00:21.566Z,3.87
2022-09-26T16:02:48.779Z,3.80
2022-09-26T16:05:16.221Z,4.40
2022-09-26T16:07:48.970Z,4.83
2022-09-26T16:10:33.371Z,6.20
2022-09-26T16:13:00.637Z,6.77
2022-09-26T16:15:30.122Z,5.93
2022-09-26T16:17:58.797Z,5.30
2022-09-26T16:20:31.469Z,8.47
2022-09-26T16:23:04.350Z,5.77
2022-09-26T16:25:35.260Z,6.37
2022-09-26T16:28:21.950Z,6.10
2022-09-26T16:31:08.583Z,6.63
2022-09-26T16:33:39.133Z,8.43
2022-09-26T16:36:24.479Z,7.53
2022-09-26T16:38:52.984Z,8.27
2022-09-26T16:41:48.941Z,10.10
2022-09-26T16:44:35.400Z,10.03
2022-09-26T16:47:05.657Z,7.80
2022-09-26T16:49:47.441Z,7.37
2022-09-26T16:52:36.463Z,9.33
2022-09-26T16:55:06.201Z,11.63
2022-09-26T16:57:38.468Z,14.43
2022-09-26T17:00:35.247Z,9.50
2022-09-26T17:03:03.386Z,8.67
2022-09-26T17:05:30.420Z,9.63
2022-09-26T17:07:57.317Z,9.10
2022-09-26T17:10:25.809Z,7.83
2022-09-26T17:12:53.582Z,12.27
2022-09-26T17:15:27.890Z,8.70
2022-09-26T17:17:56.931Z,8.00
2022-09-26T17:20:24.247Z,7.47
2022-09-26T17:22:51.378Z,7.80
2022-09-26T17:25:19.039Z,9.77
2022-09-26T17:27:50.682Z,13.27
2022-09-26T17:30:19.090Z,8.73
2022-09-26T17:32:49.962Z,8.10
2022-09-26T17:35:29.723Z,9.23
2022-09-26T17:37:56.859Z,9.77
2022-09-26T17:40:26.391Z,11.03
2022-09-26T17:42:59.279Z,9.03
2022-09-26T17:45:35.945Z,13.70
2022-09-26T17:48:10.524Z,9.80
2022-09-26T17:50:38.880Z,9.60
2022-09-26T17:53:09.287Z,8.90
2022-09-26T17:55:36.279Z,9.70
2022-09-26T17:58:09.397Z,10.37
2022-09-26T18:00:41.066Z,10.97
2022-09-26T18:03:19.055Z,12.13
2022-09-26T18:05:46.812Z,11.17
2022-09-26T18:08:19.237Z,11.00
2022-09-26T18:10:52.641Z,13.67
2022-09-26T18:13:22.813Z,11.67
2022-09-26T18:15:52.376Z,11.63
2022-09-26T18:18:21.907Z,12.20
2022-09-26T18:20:49.944Z,12.50
2022-09-26T18:23:23.295Z,12.27
2022-09-26T18:25:52.256Z,18.00
2022-09-26T18:28:22.320Z,16.67
2022-09-26T18:30:57.988Z,13.93
2022-09-26T18:33:27.876Z,13.30
2022-09-26T18:35:55.219Z,12.77
2022-09-26T18:38:22.345Z,14.57
2022-09-26T18:40:54.818Z,11.80
2022-09-26T18:43:25.104Z,14.10
2022-09-26T18:45:52.409Z,14.47
2022-09-26T18:48:29.355Z,11.53
2022-09-26T18:50:57.671Z,13.57
2022-09-26T18:53:29.480Z,9.90
2022-09-26T18:56:15.357Z,13.03
2022-09-26T18:58:42.342Z,10.77
2022-09-26T19:01:34.331Z,15.03
2022-09-26T19:04:04.711Z,9.23
2022-09-26T19:06:41.644Z,8.87
2022-09-26T19:09:14.077Z,7.00
2022-09-26T19:11:41.426Z,7.03
2022-09-26T19:14:17.794Z,10.37
2022-09-26T19:16:46.814Z,6.57
2022-09-26T19:19:14.087Z,6.37
2022-09-26T19:21:44.478Z,7.53
2022-09-26T19:24:21.173Z,10.03
2022-09-26T19:27:11.270Z,4.23
2022-09-26T19:30:03.202Z,2.43
2022-09-26T19:32:41.552Z,3.90
2022-09-26T19:35:24.386Z,2.83
2022-09-26T19:37:51.710Z,2.73
2022-09-26T19:40:21.003Z,1.93
2022-09-26T19:42:48.078Z,2.13
2022-09-26T19:45:16.017Z,4.30
2022-09-26T19:47:47.557Z,2.93
2022-09-26T19:50:25.872Z,1.53
2022-09-26T19:52:55.298Z,1.83
2022-09-26T19:55:30.343Z,2.90
2022-09-26T19:58:11.282Z,1.93
2022-09-26T20:00:41.575Z,2.63
2022-09-26T20:03:17.995Z,3.47
2022-09-26T20:05:52.227Z,4.00
2022-09-26T20:08:28.124Z,3.03
2022-09-26T20:10:56.729Z,3.93
2022-09-26T20:13:23.918Z,1.77
2022-09-26T20:15:51.169Z,3.77
2022-09-26T20:18:21.186Z,3.43
2022-09-26T20:20:53.251Z,1.87
2022-09-26T20:23:24.110Z,5.73
2022-09-26T20:25:53.454Z,3.90
2022-09-26T20:28:20.492Z,2.33
2022-09-26T20:30:54.514Z,1.83
2022-09-26T20:33:23.729Z,4.00
2022-09-26T20:36:01.689Z,1.27
2022-09-26T20:38:45.451Z,2.43
2022-09-26T20:41:27.165Z,4.00
2022-09-26T20:44:01.185Z,5.03
2022-09-26T20:46:38.096Z,2.03
2022-09-26T20:49:11.746Z,2.10
2022-09-26T20:51:38.952Z,1.40
2022-09-26T20:54:10.082Z,1.93
2022-09-26T20:56:38.852Z,3.47
2022-09-26T20:59:06.704Z,1.93
2022-09-26T21:01:33.739Z,4.23
2022-09-26T21:04:00.938Z,2.23
2022-09-26T21:06:34.024Z,3.53
2022-09-26T21:09:01.290Z,2.87
2022-09-26T21:11:28.255Z,4.33
2022-09-26T21:13:55.305Z,2.13
2022-09-26T21:16:22.684Z,3.37
2022-09-26T21:18:51.920Z,1.13
2022-09-26T21:21:24.997Z,1.50
2022-09-26T21:24:24.172Z,4.13
2022-09-26T21:26:52.195Z,2.17
2022-09-26T21:29:19.314Z,1.07
2022-09-26T21:31:50.082Z,5.80
2022-09-26T21:34:19.899Z,5.87
2022-09-26T21:36:48.161Z,4.17
2022-09-26T21:39:19.709Z,2.63
2022-09-26T21:41:50.897Z,4.07
2022-09-26T21:44:28.899Z,4.30
2022-09-26T21:46:55.998Z,2.93
2022-09-26T21:49:22.964Z,4.60
2022-09-26T21:51:54.080Z,3.43
2022-09-26T21:54:33.889Z,2.10
2022-09-26T21:57:06.633Z,1.87
2022-09-26T21:59:35.761Z,2.40
2022-09-26T22:02:02.842Z,4.50
2022-09-26T22:04:29.829Z,4.00
2022-09-26T22:06:56.790Z,3.07
2022-09-26T22:09:23.770Z,5.07
2022-09-26T22:11:50.816Z,1.50
2022-09-26T22:14:17.750Z,3.13
2022-09-26T22:16:44.731Z,5.37
2022-09-26T22:19:11.724Z,4.47
2022-09-26T22:21:38.709Z,1.83
2022-09-26T22:24:05.917Z,1.47
2022-09-26T22:26:32.990Z,1.30
2022-09-26T22:29:00.164Z,2.83
2022-09-26T22:31:27.239Z,2.70
2022-09-26T22:33:58.611Z,6.00
2022-09-26T22:36:26.501Z,1.60
2022-09-26T22:38:54.836Z,4.20
2022-09-26T22:41:21.938Z,1.87
2022-09-26T22:43:49.358Z,2.33
2022-09-26T22:46:16.532Z,2.20
2022-09-26T22:48:49.201Z,2.33
2022-09-26T22:51:17.359Z,3.90
2022-09-26T22:53:45.040Z,3.17
2022-09-26T22:56:14.969Z,1.87
2022-09-26T22:58:48.092Z,2.73
2022-09-26T23:01:18.375Z,3.33
2022-09-26T23:03:46.074Z,4.07
2022-09-26T23:06:13.146Z,3.27
2022-09-26T23:08:40.224Z,2.20
2022-09-26T23:11:08.389Z,3.10
2022-09-26T23:13:35.695Z,3.57
2022-09-26T23:16:08.052Z,6.33
2022-09-26T23:18:36.566Z,4.40
2022-09-26T23:21:07.242Z,2.57
2022-09-26T23:23:34.569Z,5.30
2022-09-26T23:26:01.850Z,5.77
2022-09-26T23:28:28.919Z,2.57
2022-09-26T23:31:03.317Z,3.83
2022-09-26T23:33:30.331Z,2.50
2022-09-26T23:35:58.402Z,3.17
2022-09-26T23:38:26.056Z,2.57
2022-09-26T23:40:53.183Z,2.77
2022-09-26T23:43:20.402Z,3.83
2022-09-26T23:45:47.572Z,3.13
2022-09-26T23:48:15.092Z,3.30
2022-09-26T23:50:45.097Z,1.83
2022-09-26T23:53:12.191Z,1.93
2022-09-26T23:55:39.163Z,2.90
2022-09-26T23:58:06.205Z,7.10
